Time;durP1;ratioP1;P1;durP2;ratioP2;P2;SDS_P1;SDS_P2;PMS_P1;PMS_P2;Temp;Humidity;BMP_temperature;BMP_pressure;BME280_temperature;BME280_humidity;BME280_pressure;Samples;Min_cycle;Max_cycle;Signal;HPM_P1;HPM_P2
2023/11/17 00:01:12;;;;;;;;;;;7.40;88.90;;;;;;5028357;28;19929;-62
2023/11/17 00:03:45;;;;;;;;;;;7.40;88.90;;;;;;5027483;28;20372;-61
2023/11/17 00:06:18;;;;;;;;;;;7.40;89.00;;;;;;5022550;28;20440;-61
2023/11/17 00:08:51;;;;;;;;;;;7.40;89.00;;;;;;5007246;28;19999;-62
2023/11/17 00:11:25;;;;;;;;;;;7.40;89.10;;;;;;5014273;28;19972;-61
2023/11/17 00:13:58;;;;;;;;;;;7.40;89.00;;;;;;5028198;28;20016;-61
2023/11/17 00:16:33;;;;;;;;;;;7.40;89.00;;;;;;5029536;28;20006;-60
2023/11/17 00:19:09;;;;;;;;;;;7.40;88.90;;;;;;5019974;28;20279;-60
2023/11/17 00:21:42;;;;;;;;;;;7.40;89.00;;;;;;5030079;28;19971;-60
2023/11/17 00:24:15;;;;;;;;;;;7.50;88.90;;;;;;5029165;28;19929;-62
2023/11/17 00:26:48;;;;;;;;;;;7.40;88.80;;;;;;5023271;28;19925;-62
2023/11/17 00:29:21;;;;;;;;;;;7.50;88.70;;;;;;5019815;28;19925;-61
2023/11/17 00:31:56;;;;;;;;;;;7.50;88.60;;;;;;5025751;28;20379;-60
2023/11/17 00:34:29;;;;;;;;;;;7.50;88.80;;;;;;5024270;28;20181;-62
2023/11/17 00:37:06;;;;;;;;;;;7.50;88.90;;;;;;5019708;28;19929;-61
2023/11/17 00:39:41;;;;;;;;;;;7.50;88.80;;;;;;5029286;28;20024;-63
2023/11/17 00:42:14;;;;;;;;;;;7.50;88.80;;;;;;5014038;28;19983;-62
2023/11/17 00:44:47;;;;;;;;;;;7.50;88.80;;;;;;5018831;28;21141;-62
2023/11/17 00:47:21;;;;;;;;;;;7.50;88.80;;;;;;5022818;28;19933;-61
2023/11/17 00:49:54;;;;;;;;;;;7.50;88.90;;;;;;5024582;28;19979;-60
2023/11/17 00:52:30;;;;;;;;;;;7.50;89.00;;;;;;5028432;28;20399;-62
2023/11/17 00:55:07;;;;;;;;;;;7.50;89.00;;;;;;5016671;28;19991;-61
2023/11/17 00:57:41;;;;;;;;;;;7.50;89.00;;;;;;5024097;28;19933;-63
2023/11/17 01:00:15;;;;;;;;;;;7.50;89.00;;;;;;5023391;28;20393;-61
2023/11/17 01:02:49;;;;;;;;;;;7.50;89.00;;;;;;5021943;28;20051;-63
2023/11/17 01:05:24;;;;;;;;;;;7.60;89.10;;;;;;5021913;28;19929;-64
2023/11/17 01:07:58;;;;;;;;;;;7.60;89.20;;;;;;5007346;28;19931;-63
2023/11/17 01:10:31;;;;;;;;;;;7.50;89.20;;;;;;5019453;28;19930;-62
2023/11/17 01:13:04;;;;;;;;;;;7.50;89.20;;;;;;5028104;28;20051;-63
2023/11/17 01:15:38;;;;;;;;;;;7.50;89.20;;;;;;5030182;28;19935;-63
2023/11/17 01:18:14;;;;;;;;;;;7.50;89.20;;;;;;5028526;28;19929;-63
2023/11/17 01:20:47;;;;;;;;;;;7.50;89.10;;;;;;5029851;28;20016;-63
2023/11/17 01:23:25;;;;;;;;;;;7.50;89.10;;;;;;5037929;28;20327;-63
2023/11/17 01:26:02;;;;;;;;;;;7.50;89.00;;;;;;5022421;28;19924;-63
2023/11/17 01:28:35;;;;;;;;;;;7.40;88.90;;;;;;5023922;28;19929;-63
2023/11/17 01:31:08;;;;;;;;;;;7.40;88.90;;;;;;5027310;28;19974;-64
2023/11/17 01:33:46;;;;;;;;;;;7.40;88.90;;;;;;5032638;28;19948;-63
2023/11/17 01:36:20;;;;;;;;;;;7.30;88.90;;;;;;5019643;28;19948;-62
2023/11/17 01:38:54;;;;;;;;;;;7.30;88.80;;;;;;5026236;28;20038;-64
2023/11/17 01:41:27;;;;;;;;;;;7.30;88.80;;;;;;5006815;28;20287;-63
2023/11/17 01:44:01;;;;;;;;;;;7.30;88.80;;;;;;5026312;28;19984;-63
2023/11/17 01:46:35;;;;;;;;;;;7.30;88.70;;;;;;5006019;28;19932;-64
2023/11/17 01:49:03;;;;;;;;;;;7.30;88.70;;;;;;5018372;28;19941;-63
2023/11/17 01:51:36;;;;;;;;;;;7.20;88.60;;;;;;5025494;28;19925;-63
2023/11/17 01:54:12;;;;;;;;;;;7.20;88.70;;;;;;5029221;28;19926;-64
2023/11/17 01:56:46;;;;;;;;;;;7.20;88.70;;;;;;5029605;28;19983;-64
2023/11/17 01:59:20;;;;;;;;;;;7.20;88.60;;;;;;5028913;28;19929;-63
2023/11/17 02:01:54;;;;;;;;;;;7.20;88.60;;;;;;5017674;28;19929;-63
2023/11/17 02:04:30;;;;;;;;;;;7.20;88.60;;;;;;5010999;28;19964;-64
2023/11/17 02:07:07;;;;;;;;;;;7.20;88.60;;;;;;5010353;28;19934;-64
2023/11/17 02:09:44;;;;;;;;;;;7.20;88.60;;;;;;5026868;28;19925;-65
2023/11/17 02:12:23;;;;;;;;;;;7.20;88.50;;;;;;5030933;28;19925;-61
2023/11/17 02:14:57;;;;;;;;;;;7.20;88.50;;;;;;5036801;28;20352;-62
2023/11/17 02:17:31;;;;;;;;;;;7.10;88.50;;;;;;5013808;28;19936;-63
2023/11/17 02:20:12;;;;;;;;;;;7.10;88.50;;;;;;5035458;28;20007;-62
2023/11/17 02:22:47;;;;;;;;;;;7.10;88.50;;;;;;5030781;28;19933;-62
2023/11/17 02:25:28;;;;;;;;;;;7.10;88.50;;;;;;4987930;28;19926;-61
2023/11/17 02:28:10;;;;;;;;;;;7.10;88.60;;;;;;5030384;28;20284;-61
2023/11/17 02:30:55;;;;;;;;;;;7.10;88.70;;;;;;5029549;28;19944;-61
2023/11/17 02:33:30;;;;;;;;;;;7.10;88.70;;;;;;5009797;28;19985;-62
2023/11/17 02:36:14;;;;;;;;;;;7.10;88.70;;;;;;5006464;28;20434;-62
2023/11/17 02:38:51;;;;;;;;;;;7.10;88.70;;;;;;5024374;28;19964;-61
2023/11/17 02:41:32;;;;;;;;;;;7.10;88.80;;;;;;5008444;28;19929;-61
2023/11/17 02:44:11;;;;;;;;;;;7.10;88.80;;;;;;5030425;28;19929;-61
2023/11/17 02:46:46;;;;;;;;;;;7.00;88.80;;;;;;5030794;28;20024;-62
2023/11/17 02:49:28;;;;;;;;;;;7.10;88.70;;;;;;5013569;28;19933;-62
2023/11/17 02:52:03;;;;;;;;;;;7.00;88.70;;;;;;5029237;28;19925;-62
2023/11/17 02:54:36;;;;;;;;;;;7.10;88.50;;;;;;5030919;28;20026;-61
2023/11/17 02:57:04;;;;;;;;;;;7.00;88.50;;;;;;5021047;28;19937;-61
2023/11/17 02:59:38;;;;;;;;;;;7.00;88.40;;;;;;5030045;28;19932;-61
2023/11/17 03:02:15;;;;;;;;;;;7.00;88.40;;;;;;5010097;28;19929;-61
2023/11/17 03:04:52;;;;;;;;;;;7.00;88.40;;;;;;5010135;28;20447;-61
2023/11/17 03:07:25;;;;;;;;;;;7.00;88.40;;;;;;5003841;28;19926;-61
2023/11/17 03:09:58;;;;;;;;;;;6.90;88.40;;;;;;5031867;28;19925;-62
2023/11/17 03:12:28;;;;;;;;;;;7.00;88.40;;;;;;5016891;28;20017;-61
2023/11/17 03:15:01;;;;;;;;;;;7.00;88.30;;;;;;5018021;28;20678;-61
2023/11/17 03:17:36;;;;;;;;;;;6.90;88.30;;;;;;5020077;28;19925;-61
2023/11/17 03:20:14;;;;;;;;;;;6.90;88.30;;;;;;5016251;28;19929;-61
2023/11/17 03:22:47;;;;;;;;;;;6.90;88.30;;;;;;5009073;28;19933;-60
2023/11/17 03:25:21;;;;;;;;;;;6.80;88.30;;;;;;4999569;28;20292;-61
2023/11/17 03:27:54;;;;;;;;;;;6.90;88.30;;;;;;5014545;28;19964;-62
2023/11/17 03:30:29;;;;;;;;;;;6.90;88.20;;;;;;5009544;28;19933;-61
2023/11/17 03:33:04;;;;;;;;;;;6.90;88.10;;;;;;5006820;28;19991;-62
2023/11/17 03:35:30;;;;;;;;;;;6.80;88.00;;;;;;5007501;28;19932;-61
2023/11/17 03:38:05;;;;;;;;;;;6.80;88.00;;;;;;5030536;28;19971;-61
2023/11/17 03:40:38;;;;;;;;;;;6.70;87.90;;;;;;5028672;28;19959;-66
2023/11/17 03:43:13;;;;;;;;;;;6.70;88.00;;;;;;5030937;28;20016;-62
2023/11/17 03:45:48;;;;;;;;;;;6.70;87.90;;;;;;5012005;28;19940;-61
2023/11/17 03:48:23;;;;;;;;;;;6.70;87.80;;;;;;5005496;28;19934;-62
2023/11/17 03:50:56;;;;;;;;;;;6.60;87.80;;;;;;5026909;28;19936;-61
2023/11/17 03:53:29;;;;;;;;;;;6.60;87.80;;;;;;4997622;28;20295;-62
2023/11/17 03:56:02;;;;;;;;;;;6.60;87.80;;;;;;5027816;28;20368;-61
2023/11/17 03:58:35;;;;;;;;;;;6.60;87.70;;;;;;5021998;28;19971;-61
2023/11/17 04:01:08;;;;;;;;;;;6.60;87.60;;;;;;5027615;28;19979;-61
2023/11/17 04:03:43;;;;;;;;;;;6.60;87.60;;;;;;5028513;28;19964;-62
2023/11/17 04:06:16;;;;;;;;;;;6.40;87.60;;;;;;5024021;28;19972;-61
2023/11/17 04:08:49;;;;;;;;;;;6.40;87.70;;;;;;5024514;28;19933;-61
2023/11/17 04:11:22;;;;;;;;;;;6.40;87.70;;;;;;5009549;28;19925;-61
2023/11/17 04:13:55;;;;;;;;;;;6.40;87.80;;;;;;5011801;28;19926;-62
2023/11/17 04:16:29;;;;;;;;;;;6.50;87.80;;;;;;5025948;28;20376;-62
2023/11/17 04:19:04;;;;;;;;;;;6.50;87.90;;;;;;5028179;28;20016;-62
2023/11/17 04:21:37;;;;;;;;;;;6.50;88.00;;;;;;5029117;28;19968;-62
2023/11/17 04:24:10;;;;;;;;;;;6.60;88.10;;;;;;5027999;28;19939;-61
2023/11/17 04:26:43;;;;;;;;;;;6.50;88.10;;;;;;5029042;28;19929;-62
2023/11/17 04:29:16;;;;;;;;;;;6.60;88.20;;;;;;5016225;28;20020;-61
2023/11/17 04:31:49;;;;;;;;;;;6.60;88.10;;;;;;5008146;28;19960;-62
2023/11/17 04:34:23;;;;;;;;;;;6.60;88.10;;;;;;5008998;28;19930;-64
2023/11/17 04:36:58;;;;;;;;;;;6.60;88.00;;;;;;5012368;28;20304;-64
2023/11/17 04:39:31;;;;;;;;;;;6.50;88.00;;;;;;5029748;28;20023;-64
2023/11/17 04:42:05;;;;;;;;;;;6.50;88.10;;;;;;5028521;28;20038;-63
2023/11/17 04:44:33;;;;;;;;;;;6.50;88.20;;;;;;5026817;28;19995;-63
2023/11/17 04:47:06;;;;;;;;;;;6.50;88.20;;;;;;5028448;28;19960;-64
2023/11/17 04:49:48;;;;;;;;;;;6.50;88.30;;;;;;5028805;28;19991;-65
2023/11/17 04:52:21;;;;;;;;;;;6.50;88.20;;;;;;5028169;28;20356;-62
2023/11/17 04:54:54;;;;;;;;;;;6.60;88.20;;;;;;5028240;28;19925;-64
2023/11/17 04:57:27;;;;;;;;;;;6.60;88.10;;;;;;5009496;28;19960;-62
2023/11/17 05:00:04;;;;;;;;;;;6.60;88.10;;;;;;5022538;28;19933;-63
2023/11/17 05:02:40;;;;;;;;;;;6.50;87.90;;;;;;5027107;28;19929;-65
2023/11/17 05:05:21;;;;;;;;;;;6.50;87.90;;;;;;5029381;28;19988;-64
2023/11/17 05:07:56;;;;;;;;;;;6.50;87.90;;;;;;5024694;28;19925;-63
2023/11/17 05:10:29;;;;;;;;;;;6.50;87.90;;;;;;5027371;28;20371;-64
2023/11/17 05:13:02;;;;;;;;;;;6.40;88.00;;;;;;5027064;28;19925;-64
2023/11/17 05:15:35;;;;;;;;;;;6.50;88.10;;;;;;5026792;28;19975;-62
2023/11/17 05:18:02;;;;;;;;;;;6.50;88.10;;;;;;5024975;28;19979;-62
2023/11/17 05:20:37;;;;;;;;;;;6.40;88.00;;;;;;5023097;28;20375;-64
2023/11/17 05:23:12;;;;;;;;;;;6.40;88.00;;;;;;5018112;28;20402;-62
2023/11/17 05:25:45;;;;;;;;;;;6.50;88.00;;;;;;5011738;28;19925;-64
2023/11/17 05:28:18;;;;;;;;;;;6.50;88.00;;;;;;5011187;28;19925;-63
2023/11/17 05:30:52;;;;;;;;;;;6.40;88.00;;;;;;5011945;28;19930;-63
2023/11/17 05:33:24;;;;;;;;;;;6.40;88.10;;;;;;5013396;28;19972;-63
2023/11/17 05:35:59;;;;;;;;;;;6.40;88.10;;;;;;5012071;28;20446;-64
2023/11/17 05:38:32;;;;;;;;;;;6.40;88.10;;;;;;5012919;28;20028;-64
2023/11/17 05:41:05;;;;;;;;;;;6.40;88.10;;;;;;5013324;28;20012;-64
2023/11/17 05:43:42;;;;;;;;;;;6.40;88.10;;;;;;5015615;28;19932;-63
2023/11/17 05:46:15;;;;;;;;;;;6.40;88.10;;;;;;5027027;28;19947;-62
2023/11/17 05:48:50;;;;;;;;;;;6.50;88.10;;;;;;5031285;28;19925;-63
2023/11/17 05:51:25;;;;;;;;;;;6.40;88.10;;;;;;5033716;28;19949;-63
2023/11/17 05:53:58;;;;;;;;;;;6.40;88.00;;;;;;5042828;28;19933;-63
2023/11/17 05:56:32;;;;;;;;;;;6.40;88.00;;;;;;5031765;28;19973;-63
2023/11/17 05:59:09;;;;;;;;;;;6.40;87.90;;;;;;5032747;28;19925;-64
2023/11/17 06:01:42;;;;;;;;;;;6.40;87.80;;;;;;5022922;28;19932;-64
2023/11/17 06:04:15;;;;;;;;;;;6.40;87.80;;;;;;5011785;28;19979;-64
2023/11/17 06:06:50;;;;;;;;;;;6.40;87.80;;;;;;5018117;28;19929;-63
2023/11/17 06:09:23;;;;;;;;;;;6.40;87.80;;;;;;5017379;28;20016;-63
2023/11/17 06:11:57;;;;;;;;;;;6.30;87.80;;;;;;5022033;28;19926;-63
2023/11/17 06:14:31;;;;;;;;;;;6.30;87.80;;;;;;5018249;28;20014;-64
2023/11/17 06:17:06;;;;;;;;;;;6.30;88.00;;;;;;5029557;28;19933;-62
2023/11/17 06:19:39;;;;;;;;;;;6.30;88.00;;;;;;5016209;28;19995;-63
2023/11/17 06:22:14;;;;;;;;;;;6.20;87.90;;;;;;5018644;28;19940;-63
2023/11/17 06:24:47;;;;;;;;;;;6.30;87.90;;;;;;4998940;28;20579;-64
2023/11/17 06:27:21;;;;;;;;;;;6.20;87.70;;;;;;5004989;28;19926;-63
2023/11/17 06:29:55;;;;;;;;;;;6.20;87.60;;;;;;5006923;28;19952;-64
2023/11/17 06:32:28;;;;;;;;;;;6.20;87.70;;;;;;5006615;28;19929;-64
2023/11/17 06:35:01;;;;;;;;;;;6.20;87.70;;;;;;5011100;28;19975;-64
2023/11/17 06:37:36;;;;;;;;;;;6.20;87.70;;;;;;5026762;28;19929;-64
2023/11/17 06:40:10;;;;;;;;;;;6.20;87.80;;;;;;5024947;28;19925;-63
2023/11/17 06:42:43;;;;;;;;;;;6.20;87.70;;;;;;5026965;28;20312;-64
2023/11/17 06:45:16;;;;;;;;;;;6.20;87.70;;;;;;5019936;28;19971;-63
2023/11/17 06:47:51;;;;;;;;;;;6.20;87.60;;;;;;5020911;28;20046;-62
2023/11/17 06:50:24;;;;;;;;;;;6.20;87.60;;;;;;5019035;28;19925;-64
2023/11/17 06:52:59;;;;;;;;;;;6.20;87.50;;;;;;5023239;28;20392;-73
2023/11/17 06:55:35;;;;;;;;;;;6.10;87.50;;;;;;5020214;28;19930;-75
2023/11/17 06:58:08;;;;;;;;;;;6.10;87.50;;;;;;5002510;28;20826;-72
2023/11/17 07:00:43;;;;;;;;;;;6.10;87.40;;;;;;5026737;28;20007;-73
2023/11/17 07:03:16;;;;;;;;;;;6.10;87.30;;;;;;5029159;28;20384;-74
2023/11/17 07:05:49;;;;;;;;;;;6.10;87.40;;;;;;5012102;28;19998;-74
2023/11/17 07:08:24;;;;;;;;;;;6.10;87.40;;;;;;5033353;28;20709;-73
2023/11/17 07:10:57;;;;;;;;;;;6.10;87.30;;;;;;5030310;28;19925;-74
2023/11/17 07:13:31;;;;;;;;;;;6.10;87.30;;;;;;5029638;28;19933;-74
2023/11/17 07:16:06;;;;;;;;;;;6.10;87.20;;;;;;5029603;28;20372;-74
2023/11/17 07:18:42;;;;;;;;;;;6.10;87.40;;;;;;5029956;28;19932;-77
2023/11/17 07:21:15;;;;;;;;;;;6.10;87.50;;;;;;5032300;28;19929;-74
2023/11/17 07:23:50;;;;;;;;;;;6.10;87.50;;;;;;5028095;28;20372;-73
2023/11/17 07:26:22;;;;;;;;;;;6.20;87.60;;;;;;5030921;28;20367;-75
2023/11/17 07:28:55;;;;;;;;;;;6.20;87.60;;;;;;5028632;28;20373;-74
2023/11/17 07:31:29;;;;;;;;;;;6.20;87.80;;;;;;5010169;28;19925;-74
2023/11/17 07:34:02;;;;;;;;;;;6.20;87.70;;;;;;5010218;28;19951;-73
2023/11/17 07:36:37;;;;;;;;;;;6.20;87.80;;;;;;5011795;28;19929;-76
2023/11/17 07:39:06;;;;;;;;;;;6.30;87.80;;;;;;5010596;28;19976;-73
2023/11/17 07:41:40;;;;;;;;;;;6.30;87.80;;;;;;5004234;28;20369;-74
2023/11/17 07:44:07;;;;;;;;;;;6.20;87.90;;;;;;5031221;28;19925;-76
2023/11/17 07:46:40;;;;;;;;;;;6.30;88.00;;;;;;5027480;28;19933;-73
2023/11/17 07:49:13;;;;;;;;;;;6.20;88.10;;;;;;5028475;28;19926;-74
2023/11/17 07:51:47;;;;;;;;;;;6.30;88.20;;;;;;5028510;28;19964;-77
2023/11/17 07:54:22;;;;;;;;;;;6.30;88.10;;;;;;5029946;28;19936;-75
2023/11/17 07:56:55;;;;;;;;;;;6.30;88.10;;;;;;5028834;28;19951;-74
2023/11/17 07:59:28;;;;;;;;;;;6.30;88.30;;;;;;5023045;28;19925;-75
2023/11/17 08:02:06;;;;;;;;;;;6.40;88.30;;;;;;5017640;28;19925;-62
2023/11/17 08:04:38;;;;;;;;;;;6.40;88.20;;;;;;4995934;28;20026;-61
2023/11/17 08:07:11;;;;;;;;;;;6.30;88.20;;;;;;5010009;28;19930;-61
2023/11/17 08:09:46;;;;;;;;;;;6.30;88.20;;;;;;5009779;28;20406;-61
2023/11/17 08:12:18;;;;;;;;;;;6.30;88.20;;;;;;5009841;28;20016;-60
2023/11/17 08:14:53;;;;;;;;;;;6.40;88.30;;;;;;5002785;28;20296;-61
2023/11/17 08:17:31;;;;;;;;;;;6.40;88.20;;;;;;5029904;28;20384;-61
2023/11/17 08:20:10;;;;;;;;;;;6.40;88.20;;;;;;5005328;28;20007;-62
2023/11/17 08:22:44;;;;;;;;;;;6.40;88.20;;;;;;5018400;28;19972;-61
2023/11/17 08:25:19;;;;;;;;;;;6.40;88.10;;;;;;5029605;28;19929;-60
2023/11/17 08:27:52;;;;;;;;;;;6.50;88.20;;;;;;5027419;28;20379;-61
2023/11/17 08:30:25;;;;;;;;;;;6.40;88.00;;;;;;5020590;28;19961;-61
2023/11/17 08:33:13;;;;;;;;;;;6.40;88.10;;;;;;5027787;28;24967;-61
2023/11/17 08:35:54;;;;;;;;;;;6.40;88.10;;;;;;5027400;28;19939;-62
2023/11/17 08:38:27;;;;;;;;;;;6.40;88.10;;;;;;5029136;28;19936;-61
2023/11/17 08:41:02;;;;;;;;;;;6.40;88.10;;;;;;5026496;28;19933;-62
2023/11/17 08:43:35;;;;;;;;;;;6.50;88.10;;;;;;5029055;28;19937;-62
2023/11/17 08:46:15;;;;;;;;;;;6.50;88.00;;;;;;5027970;28;20359;-61
2023/11/17 08:48:48;;;;;;;;;;;6.50;88.10;;;;;;5026996;28;19932;-62
2023/11/17 08:51:21;;;;;;;;;;;6.50;88.00;;;;;;5023148;28;20036;-60
2023/11/17 08:53:54;;;;;;;;;;;6.40;87.90;;;;;;5027183;28;19926;-61
2023/11/17 08:56:29;;;;;;;;;;;6.50;88.10;;;;;;5025279;28;19933;-60
2023/11/17 08:59:03;;;;;;;;;;;6.50;88.10;;;;;;5028551;28;19943;-60
2023/11/17 09:01:35;;;;;;;;;;;6.60;88.00;;;;;;5027237;28;19929;-61
2023/11/17 09:04:09;;;;;;;;;;;6.60;88.00;;;;;;5022348;28;20558;-61
2023/11/17 09:06:41;;;;;;;;;;;6.50;88.00;;;;;;5016287;28;20823;-60
2023/11/17 09:09:14;;;;;;;;;;;6.60;88.10;;;;;;5029143;28;19952;-61
2023/11/17 09:11:49;;;;;;;;;;;6.70;88.00;;;;;;5029098;28;20075;-61
2023/11/17 09:14:21;;;;;;;;;;;6.70;87.90;;;;;;5019626;28;19929;-62
2023/11/17 09:16:56;;;;;;;;;;;6.70;87.90;;;;;;5020047;28;19929;-62
2023/11/17 09:19:29;;;;;;;;;;;6.70;88.00;;;;;;5021525;28;20265;-61
2023/11/17 09:22:02;;;;;;;;;;;6.60;88.00;;;;;;5019670;28;19963;-61
2023/11/17 09:24:35;;;;;;;;;;;6.60;88.10;;;;;;5020810;28;20020;-61
2023/11/17 09:27:04;;;;;;;;;;;6.60;88.20;;;;;;5011195;28;19926;-60
2023/11/17 09:29:37;;;;;;;;;;;6.60;88.30;;;;;;5028884;28;19932;-61
2023/11/17 09:32:10;;;;;;;;;;;6.60;88.40;;;;;;5023649;28;19932;-61
2023/11/17 09:34:43;;;;;;;;;;;6.60;88.40;;;;;;5016041;28;19929;-61
2023/11/17 09:37:18;;;;;;;;;;;6.60;88.40;;;;;;5028945;28;20380;-62
2023/11/17 09:39:54;;;;;;;;;;;6.60;88.40;;;;;;5017954;28;19929;-61
2023/11/17 09:42:29;;;;;;;;;;;6.70;88.30;;;;;;5023274;28;19992;-60
2023/11/17 09:45:04;;;;;;;;;;;6.70;88.10;;;;;;5011917;28;19933;-62
2023/11/17 09:47:38;;;;;;;;;;;6.80;88.10;;;;;;5012052;28;19972;-60
2023/11/17 09:50:12;;;;;;;;;;;6.80;88.00;;;;;;5005933;28;19933;-61
2023/11/17 09:52:46;;;;;;;;;;;6.90;88.10;;;;;;5009034;28;19926;-62
2023/11/17 09:55:20;;;;;;;;;;;7.00;87.90;;;;;;5017684;28;20023;-62
2023/11/17 09:57:55;;;;;;;;;;;7.00;87.70;;;;;;5007998;28;20016;-61
2023/11/17 10:00:29;;;;;;;;;;;7.00;87.50;;;;;;5008009;28;19932;-62
2023/11/17 10:03:03;;;;;;;;;;;7.10;87.50;;;;;;5008042;28;19971;-62
2023/11/17 10:05:36;;;;;;;;;;;7.00;87.70;;;;;;5005630;28;19933;-62
2023/11/17 10:08:13;;;;;;;;;;;7.10;87.70;;;;;;5008847;28;19940;-61
2023/11/17 10:10:47;;;;;;;;;;;7.20;87.70;;;;;;5005714;28;19925;-61
2023/11/17 10:13:25;;;;;;;;;;;7.20;87.40;;;;;;5008321;28;19932;-61
2023/11/17 10:16:01;;;;;;;;;;;7.10;87.60;;;;;;5010768;28;19925;-62
2023/11/17 10:18:34;;;;;;;;;;;7.20;87.70;;;;;;5013295;28;19925;-61
2023/11/17 10:21:10;;;;;;;;;;;7.20;87.40;;;;;;5029332;28;19939;-61
2023/11/17 10:23:45;;;;;;;;;;;7.20;87.50;;;;;;5030042;28;19967;-72
2023/11/17 10:26:20;;;;;;;;;;;7.20;87.30;;;;;;5032809;28;19929;-73
2023/11/17 10:28:58;;;;;;;;;;;7.30;87.30;;;;;;5032211;28;19983;-73
2023/11/17 10:31:33;;;;;;;;;;;7.40;87.10;;;;;;5031888;28;19926;-74
2023/11/17 10:34:12;;;;;;;;;;;7.40;87.00;;;;;;5031432;28;19940;-72
2023/11/17 10:36:56;;;;;;;;;;;7.30;86.90;;;;;;5030205;28;19936;-72
2023/11/17 10:39:30;;;;;;;;;;;7.40;86.80;;;;;;5024802;28;20385;-73
2023/11/17 10:42:16;;;;;;;;;;;7.40;86.60;;;;;;5009420;28;20438;-73
2023/11/17 10:44:51;;;;;;;;;;;7.30;86.50;;;;;;5012388;28;19925;-73
2023/11/17 10:47:24;;;;;;;;;;;7.30;86.50;;;;;;5012707;28;20601;-73
2023/11/17 10:50:07;;;;;;;;;;;7.40;86.60;;;;;;5011247;28;19934;-74
2023/11/17 10:52:40;;;;;;;;;;;7.50;86.40;;;;;;5011270;28;19930;-74
2023/11/17 10:55:14;;;;;;;;;;;7.70;86.20;;;;;;5011609;28;19937;-72
2023/11/17 10:58:03;;;;;;;;;;;7.80;86.00;;;;;;5010863;28;19957;-74
2023/11/17 11:00:38;;;;;;;;;;;8.00;85.70;;;;;;5009440;28;20368;-73
2023/11/17 11:03:18;;;;;;;;;;;8.10;85.50;;;;;;5010593;28;20020;-73
2023/11/17 11:05:58;;;;;;;;;;;8.10;85.20;;;;;;5013647;28;20300;-73
2023/11/17 11:08:32;;;;;;;;;;;8.20;85.10;;;;;;5029240;28;20641;-73
2023/11/17 11:11:06;;;;;;;;;;;8.20;84.90;;;;;;5030800;28;19925;-73
2023/11/17 11:13:40;;;;;;;;;;;8.20;84.60;;;;;;5013142;28;19933;-73
2023/11/17 11:16:15;;;;;;;;;;;8.40;84.50;;;;;;5024435;28;19933;-74
2023/11/17 11:18:51;;;;;;;;;;;8.40;84.50;;;;;;4987245;28;20315;-73
2023/11/17 11:21:27;;;;;;;;;;;8.60;84.00;;;;;;5024700;28;19979;-73
2023/11/17 11:24:03;;;;;;;;;;;8.60;83.70;;;;;;5030464;28;19933;-74
2023/11/17 11:26:38;;;;;;;;;;;8.60;83.70;;;;;;5023004;28;19968;-74
2023/11/17 11:29:13;;;;;;;;;;;8.50;83.80;;;;;;5028802;28;19963;-74
2023/11/17 11:31:49;;;;;;;;;;;8.50;83.70;;;;;;5029962;28;19925;-74
2023/11/17 11:34:21;;;;;;;;;;;8.40;83.60;;;;;;5010096;28;19957;-66
2023/11/17 11:36:54;;;;;;;;;;;8.40;83.20;;;;;;5008879;28;19941;-66
2023/11/17 11:39:31;;;;;;;;;;;8.30;83.20;;;;;;5011712;28;19936;-65
2023/11/17 11:42:06;;;;;;;;;;;8.40;83.50;;;;;;5008475;28;19930;-66
2023/11/17 11:44:39;;;;;;;;;;;8.40;83.30;;;;;;5010469;28;19929;-65
2023/11/17 11:47:08;;;;;;;;;;;8.40;83.40;;;;;;5019040;28;19972;-65
2023/11/17 11:49:40;;;;;;;;;;;8.40;83.10;;;;;;5029559;28;19929;-68
2023/11/17 11:52:16;;;;;;;;;;;8.50;83.00;;;;;;5029011;28;20291;-66
2023/11/17 11:54:51;;;;;;;;;;;8.50;82.80;;;;;;5029767;28;19936;-65
2023/11/17 11:57:25;;;;;;;;;;;8.50;82.90;;;;;;5031230;28;20372;-65
2023/11/17 12:00:06;;;;;;;;;;;8.50;82.70;;;;;;5027938;28;19929;-66
2023/11/17 12:02:54;;;;;;;;;;;8.40;82.70;;;;;;5021279;28;19937;-64
2023/11/17 12:05:33;;;;;;;;;;;8.40;82.70;;;;;;5000990;28;19925;-66
2023/11/17 12:08:22;;;;;;;;;;;8.50;82.60;;;;;;5025246;28;20411;-65
2023/11/17 12:11:00;;;;;;;;;;;8.50;82.70;;;;;;5026639;28;19929;-65
2023/11/17 12:13:38;;;;;;;;;;;8.60;82.70;;;;;;5005409;28;20339;-66
2023/11/17 12:16:15;;;;;;;;;;;8.50;82.10;;;;;;5008541;28;19952;-67
2023/11/17 12:18:53;;;;;;;;;;;8.60;82.20;;;;;;5010874;28;19925;-65
2023/11/17 12:21:27;;;;;;;;;;;8.60;82.30;;;;;;5031022;28;19925;-67
2023/11/17 12:24:05;;;;;;;;;;;8.60;81.70;;;;;;5028993;28;19948;-65
2023/11/17 12:26:38;;;;;;;;;;;8.60;81.50;;;;;;5028243;28;19975;-65
2023/11/17 12:29:20;;;;;;;;;;;8.60;81.80;;;;;;5023280;28;19932;-66
2023/11/17 12:31:54;;;;;;;;;;;8.60;81.40;;;;;;5031770;28;19925;-66
2023/11/17 12:34:29;;;;;;;;;;;8.60;81.30;;;;;;5042514;28;19925;-66
2023/11/17 12:37:03;;;;;;;;;;;8.60;81.20;;;;;;5032030;28;19971;-65
2023/11/17 12:39:35;;;;;;;;;;;8.60;81.00;;;;;;5041005;28;19933;-66
2023/11/17 12:42:24;;;;;;;;;;;8.60;81.20;;;;;;5033621;28;19964;-78
2023/11/17 12:44:59;;;;;;;;;;;8.70;81.00;;;;;;5006119;28;19979;-75
2023/11/17 12:47:32;;;;;;;;;;;8.70;80.60;;;;;;5010144;28;20327;-76
2023/11/17 12:50:10;;;;;;;;;;;8.70;80.30;;;;;;5006982;28;19979;-75
2023/11/17 12:52:56;;;;;;;;;;;8.80;80.20;;;;;;5006726;28;20418;-74
2023/11/17 12:55:29;;;;;;;;;;;8.80;80.10;;;;;;5008130;28;19945;-75
2023/11/17 12:58:03;;;;;;;;;;;8.80;79.90;;;;;;5008632;28;19932;-77
2023/11/17 13:00:37;;;;;;;;;;;8.90;79.80;;;;;;5007244;28;19933;-75
2023/11/17 13:03:10;;;;;;;;;;;8.90;79.70;;;;;;4995079;28;19956;-78
2023/11/17 13:05:46;;;;;;;;;;;8.90;79.70;;;;;;5007864;28;19929;-78
2023/11/17 13:08:20;;;;;;;;;;;9.00;79.50;;;;;;5007878;28;19929;-76
2023/11/17 13:10:54;;;;;;;;;;;9.00;79.50;;;;;;5008826;28;20377;-76
2023/11/17 13:13:27;;;;;;;;;;;9.10;79.20;;;;;;5006186;28;19929;-76
2023/11/17 13:16:00;;;;;;;;;;;9.00;79.10;;;;;;5017985;28;19932;-75
2023/11/17 13:18:34;;;;;;;;;;;9.00;79.10;;;;;;5025546;28;20410;-76
2023/11/17 13:21:09;;;;;;;;;;;9.00;79.30;;;;;;5009545;28;20304;-76
2023/11/17 13:23:42;;;;;;;;;;;9.10;78.90;;;;;;5009247;28;19960;-77
2023/11/17 13:26:19;;;;;;;;;;;9.00;78.70;;;;;;5002843;28;19953;-78
2023/11/17 13:28:54;;;;;;;;;;;9.00;79.00;;;;;;5009122;28;19934;-75
2023/11/17 13:31:31;;;;;;;;;;;9.00;79.00;;;;;;5010003;28;20000;-76
2023/11/17 13:34:11;;;;;;;;;;;9.00;78.90;;;;;;5010594;28;20381;-76
2023/11/17 13:36:46;;;;;;;;;;;9.00;78.80;;;;;;5008537;28;19947;-76
2023/11/17 13:39:21;;;;;;;;;;;9.00;78.40;;;;;;5011203;28;19929;-77
2023/11/17 13:41:55;;;;;;;;;;;8.90;78.40;;;;;;5004401;28;19925;-77
2023/11/17 13:44:29;;;;;;;;;;;8.90;78.90;;;;;;5008735;28;19940;-77
2023/11/17 13:47:04;;;;;;;;;;;8.90;78.60;;;;;;5008430;28;19933;-77
2023/11/17 13:49:38;;;;;;;;;;;8.90;78.70;;;;;;5010299;28;19929;-76
2023/11/17 13:52:14;;;;;;;;;;;8.90;78.70;;;;;;5018026;28;20013;-63
2023/11/17 13:54:49;;;;;;;;;;;8.90;78.40;;;;;;5008804;28;20043;-63
2023/11/17 13:57:22;;;;;;;;;;;8.90;78.10;;;;;;5010624;28;19932;-61
2023/11/17 13:59:55;;;;;;;;;;;8.90;78.50;;;;;;5011952;28;19925;-61
2023/11/17 14:02:31;;;;;;;;;;;8.90;78.40;;;;;;5010393;28;20335;-62
2023/11/17 14:05:06;;;;;;;;;;;8.90;78.30;;;;;;5011509;28;19926;-61
2023/11/17 14:07:41;;;;;;;;;;;8.90;78.70;;;;;;5012105;28;19936;-60
2023/11/17 14:10:08;;;;;;;;;;;8.90;78.80;;;;;;5031111;28;19936;-62
2023/11/17 14:12:49;;;;;;;;;;;8.80;78.40;;;;;;5028253;28;19944;-62
2023/11/17 14:15:23;;;;;;;;;;;8.70;78.40;;;;;;5032112;28;19936;-62
2023/11/17 14:17:50;;;;;;;;;;;8.70;78.60;;;;;;5030466;28;20079;-62
2023/11/17 14:20:24;;;;;;;;;;;8.60;78.50;;;;;;5030571;28;19965;-62
2023/11/17 14:22:59;;;;;;;;;;;8.60;78.60;;;;;;5030266;28;19931;-62
2023/11/17 14:25:32;;;;;;;;;;;8.60;79.00;;;;;;5030089;28;19987;-62
2023/11/17 14:28:06;;;;;;;;;;;8.60;79.20;;;;;;5018885;28;20389;-61
2023/11/17 14:30:39;;;;;;;;;;;8.60;79.30;;;;;;5012757;28;20752;-62
2023/11/17 14:33:12;;;;;;;;;;;8.50;79.30;;;;;;5031470;28;19928;-62
2023/11/17 14:35:38;;;;;;;;;;;8.50;79.60;;;;;;5015334;28;19936;-61
2023/11/17 14:38:13;;;;;;;;;;;8.50;79.80;;;;;;5030773;28;19929;-62
2023/11/17 14:40:50;;;;;;;;;;;8.40;80.10;;;;;;5028583;28;20021;-63
2023/11/17 14:43:23;;;;;;;;;;;8.40;80.20;;;;;;5031217;28;20169;-61
2023/11/17 14:45:56;;;;;;;;;;;8.30;80.50;;;;;;5031656;28;19960;-62
2023/11/17 14:48:29;;;;;;;;;;;8.30;80.70;;;;;;5016384;28;20028;-62
2023/11/17 14:51:05;;;;;;;;;;;8.20;80.70;;;;;;5011733;28;20021;-61
2023/11/17 14:53:39;;;;;;;;;;;8.20;80.80;;;;;;5011021;28;20012;-62
2023/11/17 14:56:15;;;;;;;;;;;8.20;81.00;;;;;;5009669;28;19930;-63
2023/11/17 14:58:49;;;;;;;;;;;8.20;81.10;;;;;;5010805;28;19925;-62
2023/11/17 15:01:26;;;;;;;;;;;8.20;81.20;;;;;;5009566;28;20011;-62
2023/11/17 15:03:59;;;;;;;;;;;8.20;81.10;;;;;;5009660;28;19930;-64
2023/11/17 15:06:33;;;;;;;;;;;8.20;81.30;;;;;;5010711;28;19929;-64
2023/11/17 15:09:09;;;;;;;;;;;8.20;81.50;;;;;;5023890;28;20048;-64
2023/11/17 15:11:42;;;;;;;;;;;8.30;81.40;;;;;;5027227;28;20464;-64
2023/11/17 15:14:20;;;;;;;;;;;8.30;81.50;;;;;;5025821;28;20376;-63